Time;durP1;ratioP1;P1;durP2;ratioP2;P2;SDS_P1;SDS_P2;PMS_P1;PMS_P2;Temp;Humidity;BMP_temperature;BMP_pressure;BME280_temperature;BME280_humidity;BME280_pressure;Samples;Min_cycle;Max_cycle;Signal;HPM_P1;HPM_P2
2022/07/21 00:00:44;;;;;;;;;;;;;;;21.66;30.27;97898.75;4882470;29;1899;-72
2022/07/21 00:03:10;;;;;;;;;;;;;;;21.64;30.19;97891.91;4882551;29;948;-73
2022/07/21 00:05:35;;;;;;;;;;;;;;;21.61;30.14;97885.13;4882067;29;1085;-72
2022/07/21 00:08:01;;;;;;;;;;;;;;;21.65;29.99;97880.13;4866823;29;949;-73
2022/07/21 00:10:26;;;;;;;;;;;;;;;21.78;29.80;97880.19;4882200;29;1043;-72
2022/07/21 00:12:52;;;;;;;;;;;;;;;21.72;30.06;97884.81;4882059;29;971;-72
2022/07/21 00:15:18;;;;;;;;;;;;;;;21.73;29.83;97883.56;4881991;29;978;-72
2022/07/21 00:17:43;;;;;;;;;;;;;;;21.66;29.99;97876.09;4882003;29;1019;-72
2022/07/21 00:20:09;;;;;;;;;;;;;;;21.76;30.17;97874.97;4897240;29;1907;-72
2022/07/21 00:22:35;;;;;;;;;;;;;;;21.85;29.98;97866.59;4903425;29;1019;-72
2022/07/21 00:25:00;;;;;;;;;;;;;;;21.71;29.91;97860.56;4903103;29;980;-72
2022/07/21 00:27:26;;;;;;;;;;;;;;;21.91;29.57;97868.88;4885371;29;927;-74
2022/07/21 00:29:51;;;;;;;;;;;;;;;21.79;29.60;97857.06;4903032;29;919;-72
2022/07/21 00:32:16;;;;;;;;;;;;;;;21.66;30.25;97863.94;4903047;29;941;-72
2022/07/21 00:34:43;;;;;;;;;;;;;;;21.54;30.22;97857.00;4903015;29;869;-72
2022/07/21 00:37:09;;;;;;;;;;;;;;;21.75;30.18;97855.59;4903065;29;946;-73
2022/07/21 00:39:35;;;;;;;;;;;;;;;21.87;29.63;97859.72;4885133;29;934;-72
2022/07/21 00:42:00;;;;;;;;;;;;;;;21.81;29.73;97853.78;4902597;29;1911;-73
2022/07/21 00:44:26;;;;;;;;;;;;;;;21.72;29.88;97845.97;4902689;29;851;-72
2022/07/21 00:46:52;;;;;;;;;;;;;;;21.90;29.75;97845.41;4861773;29;959;-72
2022/07/21 00:49:17;;;;;;;;;;;;;;;21.76;29.96;97840.19;4863021;29;1007;-72
2022/07/21 00:51:43;;;;;;;;;;;;;;;21.77;30.03;97841.78;4862760;29;942;-73
2022/07/21 00:54:08;;;;;;;;;;;;;;;21.62;30.13;97835.75;4862744;29;930;-72
2022/07/21 00:56:34;;;;;;;;;;;;;;;21.65;30.01;97840.50;4862767;29;975;-73
2022/07/21 00:59:00;;;;;;;;;;;;;;;21.63;30.07;97840.16;4862562;29;1078;-72
2022/07/21 01:01:25;;;;;;;;;;;;;;;21.65;30.22;97836.88;4862484;29;1907;-73
2022/07/21 01:03:51;;;;;;;;;;;;;;;21.67;29.96;97832.38;4825952;29;941;-72
2022/07/21 01:06:16;;;;;;;;;;;;;;;21.70;29.90;97828.63;4825665;29;1183;-72
2022/07/21 01:08:41;;;;;;;;;;;;;;;21.43;30.37;97828.22;4825973;29;932;-72
2022/07/21 01:11:07;;;;;;;;;;;;;;;21.53;30.23;97821.44;4825649;29;947;-72
2022/07/21 01:13:32;;;;;;;;;;;;;;;21.59;30.09;97819.66;4825844;29;1077;-73
2022/07/21 01:15:58;;;;;;;;;;;;;;;21.53;30.31;97829.94;4826010;29;937;-73
2022/07/21 01:18:23;;;;;;;;;;;;;;;21.38;30.50;97820.28;4825941;29;969;-73
2022/07/21 01:20:50;;;;;;;;;;;;;;;21.49;30.37;97820.75;4826022;29;1912;-73
2022/07/21 01:23:16;;;;;;;;;;;;;;;21.57;30.35;97822.16;4825517;29;1005;-73
2022/07/21 01:25:46;;;;;;;;;;;;;;;21.63;30.16;97828.03;4825632;29;1025;-72
2022/07/21 01:28:12;;;;;;;;;;;;;;;21.68;30.37;97828.28;4825335;29;974;-72
2022/07/21 01:30:37;;;;;;;;;;;;;;;21.62;30.28;97824.41;4825408;29;1065;-72
2022/07/21 01:33:02;;;;;;;;;;;;;;;21.59;30.21;97819.66;4825656;29;1087;-72
2022/07/21 01:35:28;;;;;;;;;;;;;;;21.63;30.40;97814.69;4827479;29;903;-73
2022/07/21 01:37:53;;;;;;;;;;;;;;;21.72;30.05;97811.19;4843535;29;1010;-73
2022/07/21 01:43:03;;;;;;;;;;;;;;;21.81;30.24;97814.94;4843526;29;945;-72
2022/07/21 01:45:28;;;;;;;;;;;;;;;21.77;30.07;97808.59;4807177;29;962;-73
2022/07/21 01:47:54;;;;;;;;;;;;;;;21.63;30.18;97808.22;4806890;29;986;-72
2022/07/21 01:50:21;;;;;;;;;;;;;;;21.58;30.56;97812.41;4806937;29;967;-72
2022/07/21 01:52:46;;;;;;;;;;;;;;;21.73;30.03;97802.25;4806894;29;1011;-73
2022/07/21 01:55:11;;;;;;;;;;;;;;;21.63;30.33;97806.19;4788946;30;1056;-72
2022/07/21 01:57:37;;;;;;;;;;;;;;;21.62;30.25;97806.63;4788627;30;921;-72
2022/07/21 02:00:03;;;;;;;;;;;;;;;21.60;30.22;97798.56;4819850;29;976;-73
2022/07/21 02:02:32;;;;;;;;;;;;;;;21.49;30.32;97798.09;4825077;29;1916;-72
2022/07/21 02:04:57;;;;;;;;;;;;;;;21.54;30.44;97797.56;4825364;29;920;-73
2022/07/21 02:07:23;;;;;;;;;;;;;;;21.67;30.11;97795.56;4842440;29;1106;-72
2022/07/21 02:09:48;;;;;;;;;;;;;;;21.72;30.03;97789.34;4843213;29;1021;-72
2022/07/21 02:12:13;;;;;;;;;;;;;;;21.57;30.17;97788.16;4843135;29;914;-72
2022/07/21 02:14:39;;;;;;;;;;;;;;;21.55;30.19;97796.31;4843386;29;991;-72
2022/07/21 02:17:04;;;;;;;;;;;;;;;21.60;30.49;97790.09;4857078;29;1001;-73
2022/07/21 02:19:30;;;;;;;;;;;;;;;21.53;30.60;97787.47;4861437;29;963;-73
2022/07/21 02:21:55;;;;;;;;;;;;;;;21.64;30.36;97787.16;4861287;29;1978;-72
2022/07/21 02:24:21;;;;;;;;;;;;;;;21.73;30.05;97779.59;4861358;29;966;-73
2022/07/21 02:26:47;;;;;;;;;;;;;;;21.62;30.26;97779.13;4861198;29;927;-72
2022/07/21 02:29:12;;;;;;;;;;;;;;;21.68;30.42;97782.97;4842658;29;964;-73
2022/07/21 02:31:37;;;;;;;;;;;;;;;21.53;30.38;97781.81;4844750;29;1014;-73
2022/07/21 02:34:03;;;;;;;;;;;;;;;21.50;30.52;97771.38;4861348;29;1005;-73
2022/07/21 02:36:28;;;;;;;;;;;;;;;21.65;30.53;97778.19;4846006;29;953;-72
2022/07/21 02:38:54;;;;;;;;;;;;;;;21.70;30.31;97769.16;4861314;29;969;-72
2022/07/21 02:41:19;;;;;;;;;;;;;;;21.61;30.62;97766.22;4861218;29;1903;-72
2022/07/21 02:43:45;;;;;;;;;;;;;;;21.76;30.13;97764.53;4861004;29;948;-73
2022/07/21 02:46:10;;;;;;;;;;;;;;;21.77;30.33;97768.16;4861256;29;901;-72
2022/07/21 02:48:35;;;;;;;;;;;;;;;21.71;30.52;97767.94;4861008;29;986;-72
2022/07/21 02:51:01;;;;;;;;;;;;;;;21.66;30.38;97762.81;4861236;29;998;-73
2022/07/21 02:53:27;;;;;;;;;;;;;;;21.50;30.66;97758.03;4861282;29;1044;-72
2022/07/21 02:55:52;;;;;;;;;;;;;;;21.52;30.88;97763.25;4861052;29;975;-73
2022/07/21 02:58:21;;;;;;;;;;;;;;;21.71;30.50;97752.94;4861411;29;903;-73
2022/07/21 03:00:50;;;;;;;;;;;;;;;21.56;30.85;97758.28;4888644;29;1903;-73
2022/07/21 03:03:15;;;;;;;;;;;;;;;21.59;30.74;97763.03;4898366;29;1033;-73
2022/07/21 03:05:41;;;;;;;;;;;;;;;21.91;30.15;97755.56;4860721;29;1253;-72
2022/07/21 03:08:06;;;;;;;;;;;;;;;21.73;30.52;97762.59;4860986;29;1024;-73
2022/07/21 03:10:32;;;;;;;;;;;;;;;21.72;30.85;97763.84;4863147;29;975;-73
2022/07/21 03:12:57;;;;;;;;;;;;;;;21.74;30.86;97769.84;4864818;29;923;-73
2022/07/21 03:15:23;;;;;;;;;;;;;;;21.68;30.66;97774.47;4865068;29;979;-73
2022/07/21 03:17:48;;;;;;;;;;;;;;;21.82;30.59;97773.25;4864518;29;1000;-73
2022/07/21 03:20:13;;;;;;;;;;;;;;;21.60;30.96;97764.59;4827199;29;1903;-72
2022/07/21 03:22:39;;;;;;;;;;;;;;;21.67;31.00;97770.06;4827357;29;980;-73
2022/07/21 03:25:05;;;;;;;;;;;;;;;21.74;30.58;97775.50;4827839;29;986;-73
2022/07/21 03:27:30;;;;;;;;;;;;;;;21.79;30.52;97777.78;4827567;29;963;-73
2022/07/21 03:29:56;;;;;;;;;;;;;;;21.71;30.87;97787.75;4827392;29;1026;-72
2022/07/21 03:32:21;;;;;;;;;;;;;;;21.72;31.10;97783.66;4813898;29;1007;-73
2022/07/21 03:34:46;;;;;;;;;;;;;;;21.78;31.11;97776.19;4809749;29;1058;-72
2022/07/21 03:37:12;;;;;;;;;;;;;;;21.83;30.81;97778.47;4835408;29;1131;-72
2022/07/21 03:39:37;;;;;;;;;;;;;;;21.83;30.82;97777.66;4845750;29;847;-73
2022/07/21 03:42:03;;;;;;;;;;;;;;;21.87;31.03;97784.03;4845511;29;1895;-72
2022/07/21 03:44:28;;;;;;;;;;;;;;;21.72;31.33;97780.84;4844859;29;1472;-73
2022/07/21 03:46:54;;;;;;;;;;;;;;;21.98;31.17;97772.34;4845008;29;1353;-73
2022/07/21 03:49:19;;;;;;;;;;;;;;;21.95;31.02;97773.25;4845133;29;1349;-73
2022/07/21 03:51:45;;;;;;;;;;;;;;;22.08;30.67;97771.22;4843228;29;1003;-73
2022/07/21 03:54:10;;;;;;;;;;;;;;;22.00;31.08;97784.00;4878595;29;1073;-74
2022/07/21 03:56:35;;;;;;;;;;;;;;;22.01;31.25;97777.09;4882496;29;979;-73
2022/07/21 03:59:01;;;;;;;;;;;;;;;21.73;31.59;97785.25;4882386;29;933;-73
2022/07/21 04:01:26;;;;;;;;;;;;;;;21.91;31.57;97783.88;4882163;29;1990;-73
2022/07/21 04:03:52;;;;;;;;;;;;;;;21.97;31.24;97784.94;4882199;29;1022;-73
2022/07/21 04:06:17;;;;;;;;;;;;;;;21.84;31.66;97784.91;4881818;29;1273;-73
2022/07/21 04:08:43;;;;;;;;;;;;;;;21.89;31.53;97786.41;4882257;29;1033;-73
2022/07/21 04:11:08;;;;;;;;;;;;;;;21.84;31.81;97793.41;4882534;29;1018;-73
2022/07/21 04:13:34;;;;;;;;;;;;;;;21.74;31.84;97792.50;4882075;29;965;-73
2022/07/21 04:15:59;;;;;;;;;;;;;;;21.88;31.81;97796.16;4881894;29;1019;-74
2022/07/21 04:18:25;;;;;;;;;;;;;;;21.95;31.22;97791.03;4882440;29;985;-73
2022/07/21 04:20:50;;;;;;;;;;;;;;;21.90;31.50;97794.44;4881709;29;1911;-74
2022/07/21 04:23:16;;;;;;;;;;;;;;;21.81;31.60;97806.47;4882252;29;1074;-73
2022/07/21 04:25:41;;;;;;;;;;;;;;;21.75;31.77;97805.41;4881972;29;942;-73
2022/07/21 04:28:07;;;;;;;;;;;;;;;21.97;31.22;97807.59;4883323;29;1017;-73
2022/07/21 04:30:32;;;;;;;;;;;;;;;21.83;31.40;97809.63;4884220;29;1107;-73
2022/07/21 04:32:58;;;;;;;;;;;;;;;21.83;31.56;97809.63;4883780;29;934;-74
2022/07/21 04:35:23;;;;;;;;;;;;;;;21.90;31.64;97810.63;4884018;29;955;-73
2022/07/21 04:37:49;;;;;;;;;;;;;;;21.88;31.74;97807.47;4884225;29;949;-73
2022/07/21 04:40:14;;;;;;;;;;;;;;;21.82;31.66;97808.03;4883849;29;1970;-73
2022/07/21 04:42:40;;;;;;;;;;;;;;;21.81;31.60;97811.28;4883707;29;1001;-73
2022/07/21 04:45:06;;;;;;;;;;;;;;;21.81;31.62;97814.94;4883871;29;915;-73
2022/07/21 04:47:32;;;;;;;;;;;;;;;21.75;31.83;97816.72;4866318;29;939;-73
2022/07/21 04:49:57;;;;;;;;;;;;;;;21.79;31.54;97817.41;4883955;29;976;-73
2022/07/21 04:52:23;;;;;;;;;;;;;;;21.85;31.75;97821.28;4883737;29;971;-73
2022/07/21 04:54:48;;;;;;;;;;;;;;;21.81;31.53;97826.28;4883975;29;909;-73
2022/07/21 04:57:13;;;;;;;;;;;;;;;21.68;31.92;97828.28;4883813;29;899;-73
2022/07/21 04:59:39;;;;;;;;;;;;;;;21.83;31.90;97823.78;4883430;29;961;-73
2022/07/21 05:02:05;;;;;;;;;;;;;;;21.91;31.52;97829.22;4883668;29;1980;-73
2022/07/21 05:04:30;;;;;;;;;;;;;;;22.05;31.31;97831.63;4882072;29;1373;-74
2022/07/21 05:06:56;;;;;;;;;;;;;;;22.12;31.27;97828.56;4885024;29;1056;-74
2022/07/21 05:09:21;;;;;;;;;;;;;;;21.93;31.58;97832.41;4883513;29;958;-74
2022/07/21 05:11:46;;;;;;;;;;;;;;;21.93;31.77;97829.56;4883266;29;940;-74
2022/07/21 05:14:12;;;;;;;;;;;;;;;21.92;31.63;97836.50;4883635;29;1164;-73
2022/07/21 05:16:37;;;;;;;;;;;;;;;21.97;31.71;97838.75;4883332;29;1114;-73
2022/07/21 05:19:03;;;;;;;;;;;;;;;22.06;31.34;97836.81;4883313;29;998;-73
2022/07/21 05:21:28;;;;;;;;;;;;;;;22.11;31.35;97832.66;4883076;29;1908;-74
2022/07/21 05:23:54;;;;;;;;;;;;;;;22.06;31.57;97841.69;4883196;29;886;-74
2022/07/21 05:26:19;;;;;;;;;;;;;;;21.97;31.71;97833.09;4883192;29;953;-73
2022/07/21 05:28:45;;;;;;;;;;;;;;;22.09;31.45;97844.44;4883286;29;873;-73
2022/07/21 05:31:10;;;;;;;;;;;;;;;22.04;31.74;97841.38;4883044;29;945;-73
2022/07/21 05:33:36;;;;;;;;;;;;;;;21.63;32.69;97848.66;4882221;29;969;-74
2022/07/21 05:36:02;;;;;;;;;;;;;;;21.85;32.14;97858.09;4882895;29;963;-73
2022/07/21 05:38:27;;;;;;;;;;;;;;;21.73;32.44;97858.88;4881031;29;964;-74
2022/07/21 05:40:53;;;;;;;;;;;;;;;21.88;32.32;97861.28;4882796;29;1899;-75
2022/07/21 05:43:18;;;;;;;;;;;;;;;21.94;32.37;97862.31;4882763;29;874;-74
2022/07/21 05:45:44;;;;;;;;;;;;;;;21.95;32.28;97864.69;4882542;29;1139;-74
2022/07/21 05:48:09;;;;;;;;;;;;;;;21.91;32.25;97864.00;4882778;29;988;-74
2022/07/21 05:50:35;;;;;;;;;;;;;;;21.94;32.24;97863.09;4865265;29;1094;-74
2022/07/21 05:53:00;;;;;;;;;;;;;;;22.00;32.15;97871.84;4882716;29;894;-74
2022/07/21 05:55:26;;;;;;;;;;;;;;;22.06;32.05;97870.03;4882591;29;1064;-75
2022/07/21 05:57:51;;;;;;;;;;;;;;;21.85;32.49;97872.25;4882397;29;961;-75
2022/07/21 06:00:17;;;;;;;;;;;;;;;22.02;32.47;97870.16;4882819;29;1910;-74
2022/07/21 06:02:43;;;;;;;;;;;;;;;22.05;32.14;97857.13;4861298;29;1029;-74
2022/07/21 06:05:10;;;;;;;;;;;;;;;22.21;32.15;97868.38;4825009;29;1012;-74
2022/07/21 06:07:36;;;;;;;;;;;;;;;22.21;31.97;97870.41;4824602;29;1239;-74
2022/07/21 06:10:01;;;;;;;;;;;;;;;22.06;32.25;97867.19;4825107;29;1029;-74
2022/07/21 06:12:27;;;;;;;;;;;;;;;22.10;32.60;97865.06;4825082;29;1059;-75
2022/07/21 06:14:52;;;;;;;;;;;;;;;21.92;32.72;97870.50;4824986;29;919;-74
2022/07/21 06:17:18;;;;;;;;;;;;;;;22.82;32.06;97870.06;5144613;23;3819;-78
2022/07/21 06:19:43;;;;;;;;;;;;;;;23.04;33.40;97863.66;4880719;29;1448;-79
2022/07/21 06:22:09;;;;;;;;;;;;;;;22.55;34.21;97869.75;4864947;29;1911;-78
2022/07/21 06:24:34;;;;;;;;;;;;;;;22.23;34.00;97868.75;4880724;29;935;-78
2022/07/21 06:27:00;;;;;;;;;;;;;;;22.23;33.61;97874.41;4843464;29;877;-78
2022/07/21 06:29:25;;;;;;;;;;;;;;;22.12;33.16;97873.91;4843259;29;982;-78
2022/07/21 06:31:50;;;;;;;;;;;;;;;22.12;32.90;97873.91;4828174;29;985;-78
2022/07/21 06:34:16;;;;;;;;;;;;;;;22.28;32.17;97881.56;4843733;29;1020;-77
2022/07/21 06:36:41;;;;;;;;;;;;;;;22.20;31.82;97880.97;4825032;29;970;-78
2022/07/21 06:39:07;;;;;;;;;;;;;;;22.27;31.81;97875.06;4825088;29;1065;-78
2022/07/21 06:41:33;;;;;;;;;;;;;;;22.14;31.61;97882.78;4794844;29;1915;-78
2022/07/21 06:43:58;;;;;;;;;;;;;;;22.03;31.52;97876.63;4825505;29;913;-78
2022/07/21 06:46:24;;;;;;;;;;;;;;;21.93;31.60;97877.72;4828390;29;999;-78
2022/07/21 06:48:49;;;;;;;;;;;;;;;22.08;30.99;97873.22;4829188;29;955;-79
2022/07/21 06:51:14;;;;;;;;;;;;;;;22.01;31.19;97865.72;4792229;29;927;-79
2022/07/21 06:53:42;;;;;;;;;;;;;;;21.94;31.04;97877.28;4792705;29;954;-78
2022/07/21 06:56:07;;;;;;;;;;;;;;;21.88;31.01;97881.13;4775542;30;1053;-78
2022/07/21 06:58:34;;;;;;;;;;;;;;;21.91;31.08;97871.72;4819355;29;1018;-78
2022/07/21 07:00:59;;;;;;;;;;;;;;;21.95;30.71;97863.91;4813673;29;1989;-78
2022/07/21 07:03:25;;;;;;;;;;;;;;;22.11;30.54;97875.16;4828514;29;962;-78
2022/07/21 07:05:50;;;;;;;;;;;;;;;21.87;30.74;97873.88;4828578;29;934;-78
2022/07/21 07:08:16;;;;;;;;;;;;;;;22.01;30.85;97873.44;4828679;29;1023;-78
2022/07/21 07:10:41;;;;;;;;;;;;;;;21.95;30.56;97875.22;4828357;29;1022;-78
2022/07/21 07:13:07;;;;;;;;;;;;;;;21.99;30.51;97868.22;4828436;29;1031;-78
2022/07/21 07:15:32;;;;;;;;;;;;;;;22.02;30.36;97863.66;4828238;29;962;-78
2022/07/21 07:17:58;;;;;;;;;;;;;;;21.87;30.93;97868.22;4809994;29;1084;-79
2022/07/21 07:20:23;;;;;;;;;;;;;;;21.97;30.23;97873.56;4810309;29;1998;-78
2022/07/21 07:22:49;;;;;;;;;;;;;;;21.91;30.50;97863.22;4810010;29;992;-78
2022/07/21 07:25:17;;;;;;;;;;;;;;;21.93;30.45;97866.41;4810276;29;1035;-78
2022/07/21 07:27:45;;;;;;;;;;;;;;;21.99;30.55;97864.59;4837267;29;976;-79
2022/07/21 07:30:11;;;;;;;;;;;;;;;21.97;30.47;97867.09;4846750;29;936;-79
2022/07/21 07:32:37;;;;;;;;;;;;;;;22.01;30.34;97862.88;4846772;29;910;-79
2022/07/21 07:35:02;;;;;;;;;;;;;;;21.87;30.84;97873.88;4830844;29;1519;-78
2022/07/21 07:37:28;;;;;;;;;;;;;;;21.95;30.33;97863.91;4830927;29;911;-78
2022/07/21 07:39:53;;;;;;;;;;;;;;;21.93;30.25;97855.88;4846470;29;906;-77
2022/07/21 07:42:18;;;;;;;;;;;;;;;21.94;30.63;97870.81;4846221;29;1974;-79
2022/07/21 07:44:45;;;;;;;;;;;;;;;22.12;30.43;97864.63;4846383;29;1031;-76
2022/07/21 07:47:10;;;;;;;;;;;;;;;21.87;30.39;97868.22;4846592;29;950;-78
2022/07/21 07:49:36;;;;;;;;;;;;;;;21.71;31.01;97867.03;4890691;29;986;-78
2022/07/21 07:52:02;;;;;;;;;;;;;;;21.88;30.71;97875.47;4904028;29;926;-78
2022/07/21 07:54:28;;;;;;;;;;;;;;;21.71;31.04;97867.03;4904290;29;1030;-79
2022/07/21 07:56:53;;;;;;;;;;;;;;;21.83;30.79;97857.75;4902463;29;922;-78
2022/07/21 07:59:19;;;;;;;;;;;;;;;21.58;31.03;97872.66;4904061;29;899;-78
2022/07/21 08:01:44;;;;;;;;;;;;;;;21.72;30.59;97879.94;4903683;29;2227;-78
2022/07/21 08:04:09;;;;;;;;;;;;;;;21.83;30.39;97869.09;4903991;29;953;-78
2022/07/21 08:06:35;;;;;;;;;;;;;;;21.89;30.43;97865.72;4903827;29;1024;-78
2022/07/21 08:09:00;;;;;;;;;;;;;;;21.98;30.18;97866.63;4882456;29;975;-79
2022/07/21 08:11:26;;;;;;;;;;;;;;;21.86;30.32;97856.06;4882919;29;928;-78
2022/07/21 08:13:51;;;;;;;;;;;;;;;21.86;30.31;97867.38;4882555;29;1029;-78
2022/07/21 08:16:17;;;;;;;;;;;;;;;21.79;30.42;97868.41;4882898;29;1164;-78
2022/07/21 08:18:43;;;;;;;;;;;;;;;21.95;30.10;97866.72;4882635;29;948;-78
2022/07/21 08:21:08;;;;;;;;;;;;;;;21.72;30.42;97865.78;4867136;29;1973;-78
2022/07/21 08:23:34;;;;;;;;;;;;;;;21.96;30.22;97873.97;4882379;29;987;-79
2022/07/21 08:25:59;;;;;;;;;;;;;;;21.95;30.22;97875.22;4882687;29;1052;-78
2022/07/21 08:28:24;;;;;;;;;;;;;;;21.72;30.37;97874.28;4882243;29;936;-78
2022/07/21 08:30:50;;;;;;;;;;;;;;;21.98;29.91;97883.63;4882737;29;1038;-78
2022/07/21 08:33:15;;;;;;;;;;;;;;;21.84;30.27;97882.00;4882425;29;974;-78
2022/07/21 08:35:41;;;;;;;;;;;;;;;22.70;30.17;97885.06;5038878;23;3736;-78
2022/07/21 08:38:07;;;;;;;;;;;;;;;22.56;32.39;97891.19;4882454;29;1495;-79
2022/07/21 08:40:33;;;;;;;;;;;;;;;22.43;32.71;97879.03;4866760;29;1984;-78
2022/07/21 08:42:59;;;;;;;;;;;;;;;22.24;32.58;97876.00;4866382;29;982;-79
2022/07/21 08:45:25;;;;;;;;;;;;;;;22.21;32.54;97876.09;4882405;29;787;-78
2022/07/21 08:47:53;;;;;;;;;;;;;;;22.22;32.31;97878.47;4882183;29;1348;-78
2022/07/21 08:50:19;;;;;;;;;;;;;;;22.19;31.80;97885.06;4867068;29;836;-78
2022/07/21 08:52:45;;;;;;;;;;;;;;;22.13;31.77;97874.75;4881928;29;954;-78
2022/07/21 08:55:10;;;;;;;;;;;;;;;22.06;32.02;97887.03;4866883;29;903;-78
2022/07/21 08:57:37;;;;;;;;;;;;;;;21.94;32.00;97885.78;4866322;29;811;-78
2022/07/21 09:00:03;;;;;;;;;;;;;;;21.89;31.66;97877.84;4826597;29;995;-78
2022/07/21 09:02:33;;;;;;;;;;;;;;;21.79;31.76;97893.88;4811162;29;1907;-78
2022/07/21 09:04:59;;;;;;;;;;;;;;;22.20;30.97;97892.31;4826631;29;929;-78
2022/07/21 09:07:24;;;;;;;;;;;;;;;22.03;31.20;97887.94;4789113;29;1168;-78
2022/07/21 09:09:57;;;;;;;;;;;;;;;21.81;31.36;97887.78;4740006;30;914;-78
2022/07/21 09:12:22;;;;;;;;;;;;;;;21.87;31.17;97873.88;4736518;30;970;-77
2022/07/21 09:14:48;;;;;;;;;;;;;;;22.00;30.99;97883.19;4702079;30;1189;-78
2022/07/21 09:17:14;;;;;;;;;;;;;;;21.95;30.98;97880.91;4701863;30;1063;-77
2022/07/21 09:19:41;;;;;;;;;;;;;;;21.66;31.75;97881.75;4716355;30;1359;-78
2022/07/21 09:22:11;;;;;;;;;;;;;;;21.90;30.80;97887.13;4719138;30;1885;-78
2022/07/21 09:24:39;;;;;;;;;;;;;;;21.90;31.02;97884.28;4701660;30;998;-78
2022/07/21 09:27:06;;;;;;;;;;;;;;;21.97;30.86;97878.44;4701925;30;1024;-79
2022/07/21 09:29:34;;;;;;;;;;;;;;;22.06;30.40;97887.03;4701727;30;1014;-79
2022/07/21 09:32:11;;;;;;;;;;;;;;;22.02;30.31;97887.16;4717463;30;999;-79
2022/07/21 09:34:36;;;;;;;;;;;;;;;21.86;30.88;97878.72;4719308;30;1229;-79
2022/07/21 09:37:04;;;;;;;;;;;;;;;21.89;30.42;97874.22;4719163;30;1031;-79
2022/07/21 09:39:41;;;;;;;;;;;;;;;21.94;30.43;97884.97;4735518;30;1011;-79
2022/07/21 09:42:23;;;;;;;;;;;;;;;21.99;30.28;97881.59;4771863;30;1911;-78
2022/07/21 09:44:50;;;;;;;;;;;;;;;21.91;30.44;97885.88;4792668;29;911;-79
2022/07/21 09:47:16;;;;;;;;;;;;;;;21.97;30.25;97864.25;4844062;29;1010;-78
2022/07/21 09:49:41;;;;;;;;;;;;;;;21.71;30.86;97875.53;4825984;29;923;-77
2022/07/21 09:52:20;;;;;;;;;;;;;;;21.68;30.64;97876.41;4825828;29;974;-77
2022/07/21 09:54:45;;;;;;;;;;;;;;;21.83;30.57;97890.97;4826048;29;1012;-78
2022/07/21 09:57:11;;;;;;;;;;;;;;;21.71;30.52;97883.22;4841108;29;917;-78
2022/07/21 09:59:36;;;;;;;;;;;;;;;21.93;30.34;97884.19;4826059;29;922;-78
2022/07/21 10:02:01;;;;;;;;;;;;;;;21.83;30.38;97886.09;4825788;29;1907;-78
2022/07/21 10:04:27;;;;;;;;;;;;;;;21.74;30.36;97885.16;4810460;29;1177;-78
2022/07/21 10:06:52;;;;;;;;;;;;;;;21.78;30.29;97883.03;4807332;29;1028;-77
2022/07/21 10:09:18;;;;;;;;;;;;;;;21.65;30.42;97888.63;4807719;29;1199;-77
2022/07/21 10:11:43;;;;;;;;;;;;;;;21.75;30.70;97890.38;4807498;29;1103;-78
2022/07/21 10:14:10;;;;;;;;;;;;;;;21.68;30.34;97884.91;4807374;29;928;-78
2022/07/21 10:16:35;;;;;;;;;;;;;;;21.67;30.33;97896.69;4806244;29;1688;-78
2022/07/21 10:19:09;;;;;;;;;;;;;;;21.75;30.51;97892.41;4837123;29;999;-78
2022/07/21 10:21:53;;;;;;;;;;;;;;;21.55;30.31;97878.41;4806961;29;1911;-78
2022/07/21 10:24:19;;;;;;;;;;;;;;;21.54;30.50;97882.47;4807421;29;876;-78
2022/07/21 10:27:06;;;;;;;;;;;;;;;21.75;30.23;97887.53;4807117;29;1074;-78
2022/07/21 10:29:47;;;;;;;;;;;;;;;21.71;30.08;97884.03;4807156;29;984;-78
2022/07/21 10:32:13;;;;;;;;;;;;;;;21.92;29.86;97882.59;4806957;29;920;-78
2022/07/21 10:34:38;;;;;;;;;;;;;;;21.91;29.91;97886.66;4807164;29;1139;-78
2022/07/21 10:37:04;;;;;;;;;;;;;;;21.67;30.16;97877.66;4813190;29;991;-78
2022/07/21 10:39:30;;;;;;;;;;;;;;;21.72;29.85;97879.94;4806870;29;943;-78
2022/07/21 10:41:56;;;;;;;;;;;;;;;21.63;29.81;97882.63;4807321;29;1903;-78
2022/07/21 10:44:28;;;;;;;;;;;;;;;21.75;30.02;97876.19;4807199;29;940;-78
2022/07/21 10:47:13;;;;;;;;;;;;;;;21.65;30.12;97874.47;4807239;29;1008;-78
2022/07/21 10:49:43;;;;;;;;;;;;;;;21.68;29.80;97884.91;4806939;29;1040;-78
2022/07/21 10:52:27;;;;;;;;;;;;;;;21.88;29.55;97886.78;4806930;29;907;-77
2022/07/21 10:55:25;;;;;;;;;;;;;;;21.83;29.58;97885.31;4806953;29;967;-78
2022/07/21 10:58:09;;;;;;;;;;;;;;;21.92;29.42;97876.16;4788909;29;1033;-77
2022/07/21 11:00:36;;;;;;;;;;;;;;;21.43;30.34;97879.16;4788558;29;1920;-78
2022/07/21 11:03:02;;;;;;;;;;;;;;;21.67;29.86;97883.34;4770746;30;949;-77
2022/07/21 11:05:28;;;;;;;;;;;;;;;21.66;29.67;97893.06;4771071;30;906;-78
2022/07/21 11:08:10;;;;;;;;;;;;;;;21.45;29.73;97876.66;4770932;30;931;-78
2022/07/21 11:10:36;;;;;;;;;;;;;;;21.59;29.40;97882.72;4770698;30;927;-77
2022/07/21 11:13:01;;;;;;;;;;;;;;;21.55;29.55;97886.91;4805390;29;962;-78
2022/07/21 11:15:42;;;;;;;;;;;;;;;21.80;29.20;97886.97;4806998;29;1056;-78
2022/07/21 11:18:08;;;;;;;;;;;;;;;21.47;29.75;97874.19;4806702;29;1008;-78
2022/07/21 11:20:33;;;;;;;;;;;;;;;21.56;29.64;97899.84;4806588;29;1978;-78
2022/07/21 11:23:02;;;;;;;;;;;;;;;21.55;29.48;97886.91;4806575;29;996;-77
2022/07/21 11:25:33;;;;;;;;;;;;;;;21.49;29.56;97883.03;4806852;29;1020;-78
2022/07/21 11:27:58;;;;;;;;;;;;;;;21.65;29.49;97896.34;4806534;29;1018;-78
2022/07/21 11:30:24;;;;;;;;;;;;;;;21.58;29.32;97897.34;4806963;29;976;-78
2022/07/21 11:32:49;;;;;;;;;;;;;;;21.54;29.28;97883.28;4810151;29;928;-78
2022/07/21 11:35:15;;;;;;;;;;;;;;;21.64;29.36;97887.06;4861995;29;1066;-77
2022/07/21 11:37:41;;;;;;;;;;;;;;;21.47;29.93;97897.63;4809546;29;956;-77
2022/07/21 11:40:07;;;;;;;;;;;;;;;21.53;29.43;97895.06;4823217;29;982;-78
2022/07/21 11:42:33;;;;;;;;;;;;;;;21.58;29.53;97886.00;4846162;29;1974;-77
2022/07/21 11:44:58;;;;;;;;;;;;;;;21.62;29.24;97892.38;4846325;29;1023;-78
2022/07/21 11:47:25;;;;;;;;;;;;;;;21.64;29.24;97889.88;4846125;29;914;-78
2022/07/21 11:49:54;;;;;;;;;;;;;;;21.56;29.37;97899.84;4846181;29;988;-78
2022/07/21 11:52:23;;;;;;;;;;;;;;;21.46;29.51;97900.94;4846377;29;1042;-78
2022/07/21 11:54:50;;;;;;;;;;;;;;;21.55;29.26;97898.22;4846178;29;1152;-77
2022/07/21 11:57:16;;;;;;;;;;;;;;;21.46;29.43;97895.25;4827536;29;1314;-77
2022/07/21 11:59:42;;;;;;;;;;;;;;;21.52;29.22;97896.31;4812966;29;896;-78
2022/07/21 12:02:07;;;;;;;;;;;;;;;21.49;29.28;97894.34;4827525;29;1907;-77
2022/07/21 12:04:34;;;;;;;;;;;;;;;21.44;29.37;97889.25;4827730;29;990;-78
2022/07/21 12:07:00;;;;;;;;;;;;;;;21.33;29.89;97887.50;4827764;29;969;-77
2022/07/21 12:09:25;;;;;;;;;;;;;;;21.33;29.77;97893.16;4842828;29;923;-77
2022/07/21 12:11:50;;;;;;;;;;;;;;;21.42;29.60;97883.25;4845543;29;995;-78
2022/07/21 12:14:16;;;;;;;;;;;;;;;21.52;29.29;97893.47;4845718;29;1033;-77
2022/07/21 12:16:49;;;;;;;;;;;;;;;21.51;29.46;97891.88;4845525;29;930;-78
2022/07/21 12:19:15;;;;;;;;;;;;;;;21.46;29.46;97896.06;4830225;29;991;-78
2022/07/21 12:21:59;;;;;;;;;;;;;;;21.40;29.38;97892.19;4826981;29;1907;-77
2022/07/21 12:24:44;;;;;;;;;;;;;;;21.57;29.26;97896.53;4811806;29;926;-77
2022/07/21 12:27:10;;;;;;;;;;;;;;;21.55;29.08;97901.06;4827023;29;1046;-78
2022/07/21 12:29:36;;;;;;;;;;;;;;;21.41;29.30;97915.63;4845278;29;1011;-78
2022/07/21 12:32:01;;;;;;;;;;;;;;;21.56;29.21;97916.81;4845222;29;991;-78
2022/07/21 12:34:27;;;;;;;;;;;;;;;21.36;29.47;97919.00;4837722;29;1227;-77
2022/07/21 12:36:52;;;;;;;;;;;;;;;21.25;29.65;97911.56;4842077;29;960;-77
2022/07/21 12:42:08;;;;;;;;;;;;;;;21.49;29.17;97900.00;4826644;29;1895;-78
2022/07/21 12:44:34;;;;;;;;;;;;;;;21.41;29.39;97901.47;4826826;29;1016;-78
2022/07/21 12:47:15;;;;;;;;;;;;;;;21.41;29.52;97898.63;4830528;29;924;-77
2022/07/21 12:49:53;;;;;;;;;;;;;;;21.45;29.16;97905.78;4845381;29;964;-77
2022/07/21 12:52:18;;;;;;;;;;;;;;;21.51;29.02;97897.56;4851337;29;964;-77
2022/07/21 12:54:44;;;;;;;;;;;;;;;21.61;28.83;97901.31;4863705;29;1149;-78
2022/07/21 12:57:10;;;;;;;;;;;;;;;21.37;29.38;97895.09;4863625;29;880;-78
2022/07/21 12:59:36;;;;;;;;;;;;;;;21.26;29.31;97893.34;4867017;29;944;-78
2022/07/21 13:02:01;;;;;;;;;;;;;;;21.73;28.94;97881.53;4903326;29;1911;-77
2022/07/21 13:04:27;;;;;;;;;;;;;;;22.45;29.58;97890.75;4903312;29;1030;-77